BWA418 TBPB-TAPA
Flight info
| Callsign | BWA418 |
|---|---|
| Flight time | 0h 56m |
| Altitude | 30000 |
| Route | BGI DCT MEDUS DCT EMALI |
| Aircraft | B38M/M-SDE1FGHILORVWXY/HB1 |
Departure
| Time | 2026-05-07 14:00 |
|---|---|
| Airport | Grantley Adams International Airport (TBPB) |
Arrival
| Time | 2026-05-07 14:57 |
|---|---|
| Airport | V. C. Bird International Airport (TAPA) |
| Time | Latitude | Longitude | Altitude | Speed | Heading |
|---|---|---|---|---|---|
| 2026-05-07 13:41 | 13.07870 | -59.48817 | 177 ft | 0 kts | 345° |
| 2026-05-07 13:49 | 13.07854 | -59.48812 | 177 ft | 2 kts | 345° |
| 2026-05-07 13:49 | 13.07838 | -59.48808 | 177 ft | 2 kts | 345° |
| 2026-05-07 13:49 | 13.07823 | -59.48804 | 177 ft | 2 kts | 345° |
| 2026-05-07 13:50 | 13.07808 | -59.48800 | 177 ft | 2 kts | 345° |
| 2026-05-07 13:50 | 13.07792 | -59.48795 | 177 ft | 2 kts | 332° |
| 2026-05-07 13:50 | 13.07780 | -59.48785 | 177 ft | 2 kts | 300° |
| 2026-05-07 13:50 | 13.07775 | -59.48775 | 177 ft | 2 kts | 281° |
| 2026-05-07 13:51 | 13.07774 | -59.48758 | 177 ft | 2 kts | 267° |
| 2026-05-07 13:51 | 13.07776 | -59.48742 | 177 ft | 2 kts | 258° |
| 2026-05-07 13:51 | 13.07779 | -59.48726 | 177 ft | 2 kts | 258° |
| 2026-05-07 13:51 | 13.07782 | -59.48710 | 177 ft | 1 kts | 255° |
| 2026-05-07 13:52 | 13.07783 | -59.48710 | 177 ft | 0 kts | 255° |
| 2026-05-07 13:55 | 13.07782 | -59.48713 | 177 ft | 1 kts | 255° |
| 2026-05-07 13:55 | 13.07775 | -59.48732 | 177 ft | 4 kts | 245° |
| 2026-05-07 13:55 | 13.07750 | -59.48768 | 177 ft | 8 kts | 233° |
| 2026-05-07 13:55 | 13.07726 | -59.48829 | 177 ft | 11 kts | 251° |
| 2026-05-07 13:56 | 13.07705 | -59.48917 | 177 ft | 15 kts | 252° |
| 2026-05-07 13:56 | 13.07675 | -59.49030 | 177 ft | 19 kts | 256° |
| 2026-05-07 13:56 | 13.07641 | -59.49173 | 177 ft | 22 kts | 256° |
| 2026-05-07 13:56 | 13.07601 | -59.49339 | 177 ft | 25 kts | 256° |
| 2026-05-07 13:57 | 13.07556 | -59.49522 | 177 ft | 28 kts | 256° |
| 2026-05-07 13:57 | 13.07508 | -59.49720 | 177 ft | 28 kts | 256° |
| 2026-05-07 13:57 | 13.07458 | -59.49924 | 177 ft | 30 kts | 256° |
| 2026-05-07 13:57 | 13.07415 | -59.50105 | 177 ft | 27 kts | 256° |
| 2026-05-07 13:58 | 13.07367 | -59.50300 | 177 ft | 29 kts | 255° |
| 2026-05-07 13:58 | 13.07314 | -59.50511 | 178 ft | 32 kts | 257° |
| 2026-05-07 13:58 | 13.07258 | -59.50703 | 177 ft | 21 kts | 234° |
| 2026-05-07 13:58 | 13.07162 | -59.50714 | 177 ft | 14 kts | 166° |
| 2026-05-07 13:59 | 13.07108 | -59.50654 | 178 ft | 8 kts | 86° |
| 2026-05-07 13:59 | 13.07113 | -59.50629 | 178 ft | 0 kts | 76° |
| 2026-05-07 13:59 | 13.07119 | -59.50603 | 178 ft | 16 kts | 75° |
| 2026-05-07 14:00 | 13.07222 | -59.50182 | 179 ft | 115 kts | 76° |
| 2026-05-07 14:00 | 13.07489 | -59.49110 | 252 ft | 188 kts | 75° |
| 2026-05-07 14:00 | 13.07840 | -59.47699 | 800 ft | 216 kts | 77° |
| 2026-05-07 14:00 | 13.08172 | -59.46271 | 1402 ft | 198 kts | 76° |
| 2026-05-07 14:01 | 13.08495 | -59.44930 | 2029 ft | 190 kts | 76° |
| 2026-05-07 14:01 | 13.08810 | -59.43628 | 2638 ft | 185 kts | 70° |
| 2026-05-07 14:01 | 13.09539 | -59.42553 | 3184 ft | 198 kts | 40° |
| 2026-05-07 14:01 | 13.10837 | -59.41849 | 3778 ft | 227 kts | 16° |
| 2026-05-07 14:02 | 13.12500 | -59.41789 | 4418 ft | 254 kts | 353° |
| 2026-05-07 14:02 | 13.14219 | -59.42460 | 5053 ft | 281 kts | 332° |
| 2026-05-07 14:02 | 13.15940 | -59.43605 | 5694 ft | 305 kts | 327° |
| 2026-05-07 14:02 | 13.17738 | -59.44911 | 6322 ft | 325 kts | 327° |
| 2026-05-07 14:03 | 13.19614 | -59.46276 | 6919 ft | 333 kts | 326° |
| 2026-05-07 14:03 | 13.21502 | -59.47640 | 7515 ft | 338 kts | 326° |
| 2026-05-07 14:03 | 13.23439 | -59.49052 | 8135 ft | 342 kts | 326° |
| 2026-05-07 14:03 | 13.25408 | -59.50464 | 8755 ft | 345 kts | 327° |
| 2026-05-07 14:04 | 13.27370 | -59.51872 | 9378 ft | 348 kts | 326° |
| 2026-05-07 14:04 | 13.29364 | -59.53306 | 10006 ft | 351 kts | 326° |
| 2026-05-07 14:04 | 13.31382 | -59.54750 | 10578 ft | 354 kts | 327° |
| 2026-05-07 14:04 | 13.33409 | -59.56199 | 11175 ft | 354 kts | 327° |
| 2026-05-07 14:05 | 13.35408 | -59.57635 | 11763 ft | 354 kts | 327° |
| 2026-05-07 14:05 | 13.37438 | -59.59103 | 12373 ft | 358 kts | 327° |
| 2026-05-07 14:05 | 13.39488 | -59.60580 | 12976 ft | 359 kts | 327° |
| 2026-05-07 14:05 | 13.41531 | -59.62052 | 13610 ft | 363 kts | 327° |
| 2026-05-07 14:06 | 13.43616 | -59.63553 | 14209 ft | 365 kts | 327° |
| 2026-05-07 14:06 | 13.45713 | -59.65057 | 14790 ft | 367 kts | 327° |
| 2026-05-07 14:06 | 13.47787 | -59.66536 | 15367 ft | 367 kts | 326° |
| 2026-05-07 14:06 | 13.49923 | -59.68030 | 15962 ft | 372 kts | 326° |
| 2026-05-07 14:07 | 13.52102 | -59.69520 | 16579 ft | 378 kts | 326° |
| 2026-05-07 14:07 | 13.54317 | -59.70993 | 17199 ft | 380 kts | 326° |
| 2026-05-07 14:07 | 13.56547 | -59.72437 | 17830 ft | 385 kts | 327° |
| 2026-05-07 14:07 | 13.58853 | -59.73889 | 18449 ft | 389 kts | 326° |
| 2026-05-07 14:08 | 13.61196 | -59.75343 | 19022 ft | 393 kts | 327° |
| 2026-05-07 14:08 | 13.63552 | -59.76809 | 19598 ft | 397 kts | 327° |
| 2026-05-07 14:08 | 13.65899 | -59.78258 | 20169 ft | 400 kts | 326° |
| 2026-05-07 14:08 | 13.68320 | -59.79737 | 20755 ft | 403 kts | 327° |
| 2026-05-07 14:09 | 13.70725 | -59.81202 | 21348 ft | 406 kts | 327° |
| 2026-05-07 14:09 | 13.73163 | -59.82684 | 21963 ft | 408 kts | 327° |
| 2026-05-07 14:09 | 13.75626 | -59.84175 | 22598 ft | 410 kts | 327° |
| 2026-05-07 14:09 | 13.78098 | -59.85663 | 23240 ft | 412 kts | 327° |
| 2026-05-07 14:10 | 13.80584 | -59.87155 | 23850 ft | 413 kts | 327° |
| 2026-05-07 14:10 | 13.83047 | -59.88626 | 24392 ft | 414 kts | 327° |
| 2026-05-07 14:10 | 13.85556 | -59.90119 | 24937 ft | 415 kts | 327° |
| 2026-05-07 14:10 | 13.88067 | -59.91605 | 25510 ft | 416 kts | 327° |
| 2026-05-07 14:11 | 13.90567 | -59.93075 | 26078 ft | 417 kts | 327° |
| 2026-05-07 14:11 | 13.93113 | -59.94561 | 26672 ft | 418 kts | 327° |
| 2026-05-07 14:11 | 13.95636 | -59.96023 | 27275 ft | 418 kts | 327° |
| 2026-05-07 14:11 | 13.98190 | -59.97494 | 27895 ft | 418 kts | 327° |
| 2026-05-07 14:12 | 14.00736 | -59.98952 | 28287 ft | 424 kts | 327° |
| 2026-05-07 14:12 | 14.03338 | -60.00435 | 28670 ft | 429 kts | 327° |
| 2026-05-07 14:12 | 14.05975 | -60.01932 | 29057 ft | 434 kts | 327° |
| 2026-05-07 14:12 | 14.08615 | -60.03427 | 29441 ft | 439 kts | 327° |
| 2026-05-07 14:13 | 14.11304 | -60.04946 | 29699 ft | 448 kts | 327° |
| 2026-05-07 14:13 | 14.14074 | -60.06511 | 29941 ft | 456 kts | 327° |
| 2026-05-07 14:13 | 14.16898 | -60.08107 | 30063 ft | 466 kts | 327° |
| 2026-05-07 14:13 | 14.19753 | -60.09724 | 30075 ft | 478 kts | 327° |
| 2026-05-07 14:14 | 14.22716 | -60.11406 | 30076 ft | 483 kts | 327° |
| 2026-05-07 14:14 | 14.28612 | -60.14751 | 30083 ft | 484 kts | 327° |
| 2026-05-07 14:15 | 14.34470 | -60.18071 | 30079 ft | 481 kts | 327° |
| 2026-05-07 14:15 | 14.40331 | -60.21396 | 30083 ft | 480 kts | 327° |
| 2026-05-07 14:16 | 14.46194 | -60.24723 | 30080 ft | 480 kts | 327° |
| 2026-05-07 14:16 | 14.52031 | -60.28038 | 30078 ft | 480 kts | 327° |
| 2026-05-07 14:17 | 14.57905 | -60.31373 | 30082 ft | 480 kts | 327° |
| 2026-05-07 14:17 | 14.63740 | -60.34686 | 30077 ft | 480 kts | 327° |
| 2026-05-07 14:18 | 14.69572 | -60.38007 | 30078 ft | 480 kts | 327° |
| 2026-05-07 14:18 | 14.75418 | -60.41340 | 30077 ft | 481 kts | 327° |
| 2026-05-07 14:19 | 14.81298 | -60.44691 | 30078 ft | 481 kts | 327° |
| 2026-05-07 14:19 | 14.87148 | -60.48028 | 30083 ft | 481 kts | 327° |
| 2026-05-07 14:20 | 14.93005 | -60.51380 | 30075 ft | 481 kts | 327° |
| 2026-05-07 14:20 | 14.98827 | -60.54721 | 30083 ft | 481 kts | 327° |
| 2026-05-07 14:21 | 15.04670 | -60.58088 | 30085 ft | 481 kts | 327° |
| 2026-05-07 14:21 | 15.10522 | -60.61464 | 30081 ft | 481 kts | 327° |
| 2026-05-07 14:22 | 15.16358 | -60.64831 | 30079 ft | 481 kts | 327° |
| 2026-05-07 14:22 | 15.22214 | -60.68209 | 30079 ft | 481 kts | 327° |
| 2026-05-07 14:23 | 15.28066 | -60.71585 | 30086 ft | 481 kts | 327° |
| 2026-05-07 14:23 | 15.33892 | -60.74952 | 30074 ft | 481 kts | 327° |
| 2026-05-07 14:24 | 15.39729 | -60.78326 | 30076 ft | 480 kts | 327° |
| 2026-05-07 14:24 | 15.45595 | -60.81710 | 30075 ft | 480 kts | 327° |
| 2026-05-07 14:25 | 15.51424 | -60.85072 | 30076 ft | 480 kts | 327° |
| 2026-05-07 14:25 | 15.57255 | -60.88431 | 30075 ft | 480 kts | 327° |
| 2026-05-07 14:26 | 15.63089 | -60.91791 | 30091 ft | 480 kts | 328° |
| 2026-05-07 14:26 | 15.68938 | -60.95169 | 30085 ft | 478 kts | 328° |
| 2026-05-07 14:27 | 15.74704 | -60.98503 | 30085 ft | 478 kts | 328° |
| 2026-05-07 14:27 | 15.80512 | -61.01866 | 30084 ft | 478 kts | 328° |
| 2026-05-07 14:28 | 15.86338 | -61.05241 | 30081 ft | 477 kts | 328° |
| 2026-05-07 14:28 | 15.92127 | -61.08617 | 30079 ft | 476 kts | 328° |
| 2026-05-07 14:29 | 15.97863 | -61.11974 | 30078 ft | 476 kts | 328° |
| 2026-05-07 14:29 | 16.03621 | -61.15346 | 30075 ft | 476 kts | 328° |
| 2026-05-07 14:30 | 16.09404 | -61.18732 | 30077 ft | 476 kts | 328° |
| 2026-05-07 14:30 | 16.15164 | -61.22105 | 30073 ft | 476 kts | 328° |
| 2026-05-07 14:31 | 16.20958 | -61.25495 | 30073 ft | 476 kts | 328° |
| 2026-05-07 14:31 | 16.26733 | -61.28875 | 29927 ft | 470 kts | 328° |
| 2026-05-07 14:31 | 16.29509 | -61.30496 | 29739 ft | 454 kts | 328° |
| 2026-05-07 14:32 | 16.31333 | -61.31563 | 29599 ft | 450 kts | 328° |
| 2026-05-07 14:32 | 16.34059 | -61.33163 | 29414 ft | 446 kts | 328° |
| 2026-05-07 14:32 | 16.36754 | -61.34755 | 29210 ft | 439 kts | 328° |
| 2026-05-07 14:32 | 16.39356 | -61.36304 | 29014 ft | 423 kts | 327° |
| 2026-05-07 14:33 | 16.41757 | -61.37971 | 28759 ft | 414 kts | 321° |
| 2026-05-07 14:33 | 16.44696 | -61.40413 | 28240 ft | 401 kts | 318° |
| 2026-05-07 14:33 | 16.46125 | -61.41676 | 27972 ft | 395 kts | 317° |
| 2026-05-07 14:33 | 16.48158 | -61.43510 | 27594 ft | 387 kts | 317° |
| 2026-05-07 14:34 | 16.50172 | -61.45353 | 27205 ft | 379 kts | 317° |
| 2026-05-07 14:34 | 16.52096 | -61.47124 | 26776 ft | 352 kts | 317° |
| 2026-05-07 14:34 | 16.53797 | -61.48767 | 26274 ft | 325 kts | 314° |
| 2026-05-07 14:34 | 16.55331 | -61.50391 | 25779 ft | 304 kts | 313° |
| 2026-05-07 14:35 | 16.56769 | -61.51975 | 25320 ft | 304 kts | 312° |
| 2026-05-07 14:35 | 16.58221 | -61.53602 | 24880 ft | 298 kts | 312° |
| 2026-05-07 14:35 | 16.59591 | -61.55152 | 24437 ft | 283 kts | 312° |
| 2026-05-07 14:35 | 16.60901 | -61.56646 | 24015 ft | 283 kts | 312° |
| 2026-05-07 14:36 | 16.62229 | -61.58174 | 23594 ft | 280 kts | 312° |
| 2026-05-07 14:36 | 16.63526 | -61.59676 | 23106 ft | 279 kts | 312° |
| 2026-05-07 14:36 | 16.64830 | -61.61197 | 22631 ft | 276 kts | 312° |
| 2026-05-07 14:36 | 16.66080 | -61.62662 | 22175 ft | 273 kts | 312° |
| 2026-05-07 14:37 | 16.67359 | -61.64162 | 21722 ft | 273 kts | 312° |
| 2026-05-07 14:37 | 16.70041 | -61.66900 | 20852 ft | 269 kts | 324° |
| 2026-05-07 14:37 | 16.71629 | -61.67921 | 20407 ft | 268 kts | 331° |
| 2026-05-07 14:38 | 16.73254 | -61.68859 | 20004 ft | 265 kts | 331° |
| 2026-05-07 14:38 | 16.74832 | -61.69819 | 19576 ft | 264 kts | 321° |
| 2026-05-07 14:38 | 16.76220 | -61.71256 | 19306 ft | 306 kts | 312° |
| 2026-05-07 14:38 | 16.77637 | -61.73078 | 19036 ft | 334 kts | 309° |
| 2026-05-07 14:39 | 16.79044 | -61.74999 | 18731 ft | 328 kts | 308° |
| 2026-05-07 14:39 | 16.80391 | -61.76879 | 18415 ft | 323 kts | 308° |
| 2026-05-07 14:39 | 16.81674 | -61.78794 | 18026 ft | 320 kts | 300° |
| 2026-05-07 14:39 | 16.82417 | -61.80976 | 17649 ft | 319 kts | 281° |
| 2026-05-07 14:40 | 16.82481 | -61.83254 | 17276 ft | 319 kts | 268° |
| 2026-05-07 14:40 | 16.82182 | -61.85558 | 16882 ft | 317 kts | 263° |
| 2026-05-07 14:40 | 16.81780 | -61.87833 | 16493 ft | 315 kts | 261° |
| 2026-05-07 14:40 | 16.81355 | -61.90053 | 16112 ft | 313 kts | 261° |
| 2026-05-07 14:41 | 16.80922 | -61.92279 | 15731 ft | 311 kts | 261° |
| 2026-05-07 14:41 | 16.80499 | -61.94470 | 15352 ft | 310 kts | 261° |
| 2026-05-07 14:41 | 16.80085 | -61.96681 | 14976 ft | 308 kts | 262° |
| 2026-05-07 14:41 | 16.79668 | -61.98883 | 14605 ft | 306 kts | 262° |
| 2026-05-07 14:42 | 16.79253 | -62.01038 | 14244 ft | 305 kts | 261° |
| 2026-05-07 14:42 | 16.78837 | -62.03217 | 13884 ft | 303 kts | 261° |
| 2026-05-07 14:42 | 16.78777 | -62.05384 | 13482 ft | 298 kts | 281° |
| 2026-05-07 14:42 | 16.79411 | -62.07391 | 13105 ft | 293 kts | 301° |
| 2026-05-07 14:43 | 16.80655 | -62.09053 | 12725 ft | 289 kts | 316° |
| 2026-05-07 14:43 | 16.82092 | -62.10512 | 12356 ft | 273 kts | 317° |
| 2026-05-07 14:43 | 16.83378 | -62.11783 | 12112 ft | 242 kts | 318° |
| 2026-05-07 14:43 | 16.84599 | -62.12985 | 11837 ft | 241 kts | 318° |
| 2026-05-07 14:44 | 16.85794 | -62.14162 | 11557 ft | 238 kts | 318° |
| 2026-05-07 14:44 | 16.87006 | -62.15345 | 11280 ft | 237 kts | 318° |
| 2026-05-07 14:44 | 16.88210 | -62.16522 | 10984 ft | 234 kts | 317° |
| 2026-05-07 14:44 | 16.89384 | -62.17617 | 10699 ft | 218 kts | 325° |
| 2026-05-07 14:45 | 16.90751 | -62.18199 | 10408 ft | 211 kts | 352° |
| 2026-05-07 14:45 | 16.92192 | -62.18055 | 10126 ft | 208 kts | 19° |
| 2026-05-07 14:45 | 16.93390 | -62.17232 | 9849 ft | 211 kts | 46° |
| 2026-05-07 14:45 | 16.94243 | -62.15989 | 9556 ft | 211 kts | 56° |
| 2026-05-07 14:46 | 16.94990 | -62.14699 | 9196 ft | 199 kts | 58° |
| 2026-05-07 14:46 | 16.95667 | -62.13498 | 8829 ft | 186 kts | 58° |
| 2026-05-07 14:46 | 16.96324 | -62.12342 | 8480 ft | 184 kts | 58° |
| 2026-05-07 14:46 | 16.96481 | -62.12067 | 8383 ft | 183 kts | 58° |
| 2026-05-07 14:48 | 16.97112 | -62.10961 | 8040 ft | 176 kts | 58° |
| 2026-05-07 14:48 | 16.97717 | -62.09897 | 7687 ft | 168 kts | 58° |
| 2026-05-07 14:48 | 16.98318 | -62.08838 | 7352 ft | 171 kts | 60° |
| 2026-05-07 14:49 | 16.98840 | -62.07734 | 7030 ft | 166 kts | 64° |
| 2026-05-07 14:49 | 16.99315 | -62.06657 | 6710 ft | 163 kts | 64° |
| 2026-05-07 14:49 | 16.99794 | -62.05560 | 6452 ft | 167 kts | 64° |
| 2026-05-07 14:49 | 17.00270 | -62.04487 | 6165 ft | 159 kts | 64° |
| 2026-05-07 14:50 | 17.00741 | -62.03448 | 5867 ft | 154 kts | 65° |
| 2026-05-07 14:50 | 17.01210 | -62.02443 | 5581 ft | 153 kts | 64° |
| 2026-05-07 14:50 | 17.01674 | -62.01465 | 5271 ft | 153 kts | 64° |
| 2026-05-07 14:50 | 17.02148 | -62.00475 | 5009 ft | 153 kts | 64° |
| 2026-05-07 14:51 | 17.02633 | -61.99471 | 4721 ft | 151 kts | 64° |
| 2026-05-07 14:51 | 17.03117 | -61.98484 | 4442 ft | 151 kts | 64° |
| 2026-05-07 14:51 | 17.03602 | -61.97528 | 4193 ft | 154 kts | 61° |
| 2026-05-07 14:51 | 17.04149 | -61.96593 | 3978 ft | 149 kts | 60° |
| 2026-05-07 14:52 | 17.04706 | -61.95641 | 3782 ft | 148 kts | 60° |
| 2026-05-07 14:52 | 17.05250 | -61.94726 | 3606 ft | 151 kts | 59° |
| 2026-05-07 14:52 | 17.05782 | -61.93822 | 3451 ft | 149 kts | 60° |
| 2026-05-07 14:52 | 17.06334 | -61.92892 | 3289 ft | 147 kts | 60° |
| 2026-05-07 14:53 | 17.06880 | -61.91978 | 3117 ft | 148 kts | 60° |
| 2026-05-07 14:53 | 17.07431 | -61.91070 | 2923 ft | 148 kts | 60° |
| 2026-05-07 14:53 | 17.07975 | -61.90184 | 2724 ft | 147 kts | 60° |
| 2026-05-07 14:53 | 17.08540 | -61.89270 | 2507 ft | 146 kts | 62° |
| 2026-05-07 14:54 | 17.08986 | -61.88377 | 2241 ft | 135 kts | 67° |
| 2026-05-07 14:54 | 17.09368 | -61.87493 | 1964 ft | 133 kts | 71° |
| 2026-05-07 14:54 | 17.09725 | -61.86603 | 1706 ft | 133 kts | 71° |
| 2026-05-07 14:54 | 17.10075 | -61.85698 | 1451 ft | 133 kts | 71° |
| 2026-05-07 14:55 | 17.10445 | -61.84816 | 1238 ft | 133 kts | 68° |
| 2026-05-07 14:55 | 17.10908 | -61.83977 | 1023 ft | 132 kts | 62° |
| 2026-05-07 14:55 | 17.11384 | -61.83150 | 761 ft | 132 kts | 62° |
| 2026-05-07 14:55 | 17.11857 | -61.82350 | 563 ft | 129 kts | 61° |
| 2026-05-07 14:56 | 17.12311 | -61.81565 | 360 ft | 124 kts | 60° |
| 2026-05-07 14:56 | 17.12762 | -61.80805 | 213 ft | 124 kts | 60° |
| 2026-05-07 14:56 | 17.13213 | -61.80040 | 68 ft | 120 kts | 59° |
| 2026-05-07 14:56 | 17.13603 | -61.79382 | 52 ft | 85 kts | 57° |
| 2026-05-07 14:57 | 17.13838 | -61.78992 | 49 ft | 50 kts | 59° |
| 2026-05-07 14:57 | 17.13985 | -61.78744 | 48 ft | 32 kts | 57° |
| 2026-05-07 14:57 | 17.14086 | -61.78580 | 47 ft | 25 kts | 56° |
| 2026-05-07 14:57 | 17.14170 | -61.78434 | 46 ft | 23 kts | 58° |
| 2026-05-07 14:58 | 17.14257 | -61.78290 | 44 ft | 22 kts | 56° |
| 2026-05-07 14:58 | 17.14336 | -61.78218 | 43 ft | 6 kts | 53° |
| 2026-05-07 14:58 | 17.14336 | -61.78208 | 43 ft | 0 kts | 115° |
| 2026-05-07 14:58 | 17.14334 | -61.78207 | 43 ft | 0 kts | 128° |
| 2026-05-07 14:59 | 17.14327 | -61.78205 | 43 ft | 2 kts | 170° |
| 2026-05-07 14:59 | 17.14301 | -61.78221 | 44 ft | 8 kts | 222° |
| 2026-05-07 14:59 | 17.14254 | -61.78292 | 45 ft | 16 kts | 238° |
| 2026-05-07 14:59 | 17.14182 | -61.78415 | 45 ft | 23 kts | 237° |
| 2026-05-07 15:00 | 17.14100 | -61.78572 | 45 ft | 25 kts | 258° |
| 2026-05-07 15:00 | 17.14105 | -61.78731 | 48 ft | 19 kts | 276° |
| 2026-05-07 15:00 | 17.14107 | -61.78852 | 49 ft | 15 kts | 255° |
| 2026-05-07 15:00 | 17.14088 | -61.78929 | 50 ft | 4 kts | 291° |
| 2026-05-07 15:01 | 17.14110 | -61.78957 | 50 ft | 7 kts | 316° |
| 2026-05-07 15:01 | 17.14141 | -61.78978 | 51 ft | 2 kts | 329° |
| 2026-05-07 15:01 | 17.14145 | -61.78980 | 51 ft | 0 kts | 329° |